Forum - METEO

POST X METEO

Amministratore
F.ranco52 14/10/2021 ore 08:46 Quota

(nessuno) Nowcasting Giovedì 14 Ottobre 2021

Buongiorno e Buona Giornata a tutti





Notizie Meteo dell'Italia da il Meteo .It


http://ilMeteo.It


la Situazione Italiana vista dal Sat









il Radar Europeo










Brindisi

METAR LIBR 140550Z 03022KT 9999 SCT020 16/09 Q1013=

METAR di Brindisi del 14 alle 5,50z

Vemto da 30° N NE 22 nodi (40,744 km) Visibilità 10000 m
Copertura 3-4 ottavi da 2000 piedi (609.6 m)
Temp 16°C Dew 9°C Ur 62% hPa 1013

Brindisi

TAF LIBR 140500Z 1406/1506 04022G35KT 9999 SCT040 TEMPO 1406/1412 TSRA=

le TAF di Brindisi delle 5z Previsioni dalle 6z alle 6z del 15

Vento da 40° N NE 22 nodi (40,744 km)
Raffiche da 35 nodi (64,82 km) Visibilità 10000 m
Copertura 3-4 ottavi da 4000 piedi (1219,2 m
il Tempo Varierà dalle 6z alle 12z
Temporali di Pioggia


Gioia del Colle

METAR LIBV 140455Z 35011KT 9999 SCT025 12/10 Q1013 RMK BKN SCT180 VIS MIN 9999 WIND THR32 36011KT WIND THR14 35011KT BLU=

METAR di Gioia del Colle del 14 alle 4,55z

Vento da 350° N NW 11 nodi (20,372 km) Visibilità 10000 m
Copertura 3-4 ottavi da 2500 piedi (762 m)
Temp 12°C Dew 10°C Ur 87% hPa 1013
Aumento della Nuvoosità a 5-7 ottavi
Copertura 3-4 ottavi da 18000 piedi (5486,4 m)
Visibilità Minima 10000 m

Gioia del Colle

TAF LIBV 140500Z 1406/1415 36015KTKT 9999 SCT025 TEMPO1409/1415 36017G30KT BKN025=

le TAF di Gioia del Colle delle 5z Previsioni dalle 6z alle 15z

Vento da 360° N 15 nodi (27,78 km) Visuibilità 10000 m)
Copertura 3-4 ottavi da 2500 piedi (762 m)
il Tempo Varierà dalle 9z alle 15z
Vento da 360° N 17 nodi (31,484 km)
Raffiche da 30 nodi (55,56 km)
Copertura 5-7 ottavi da 2500 piedi (762 m)
2743435
Buongiorno e Buona Giornata a tutti Notizie Meteo dell'Italia da il Meteo .It http://ilMeteo.It la Situazione Italiana vista dal...
Discussione
14/10/2021 08:46:44
none
  • mi piace
    iLikeIt
    PublicVote
    1

Vuoi partecipare anche tu a questa discussione?

Rispondi per lasciare il tuo messaggio in questa discussione